sensor_id;sensor_type;location;lat;lon;timestamp;temperature;humidity
32536;DHT22;18974;50.838;4.636;2022-12-18T00:01:30;-4.40;99.90
32536;DHT22;18974;50.838;4.636;2022-12-18T00:03:57;-4.40;99.90
32536;DHT22;18974;50.838;4.636;2022-12-18T00:06:24;-4.40;99.90
32536;DHT22;18974;50.838;4.636;2022-12-18T00:08:51;-4.50;99.90
32536;DHT22;18974;50.838;4.636;2022-12-18T00:11:19;-4.50;99.90
32536;DHT22;18974;50.838;4.636;2022-12-18T00:13:45;-4.60;99.90
32536;DHT22;18974;50.838;4.636;2022-12-18T00:16:14;-4.60;99.90
32536;DHT22;18974;50.838;4.636;2022-12-18T00:18:40;-4.70;99.90
32536;DHT22;18974;50.838;4.636;2022-12-18T00:21:08;-4.80;99.90
32536;DHT22;18974;50.838;4.636;2022-12-18T00:23:35;-4.70;99.90
32536;DHT22;18974;50.838;4.636;2022-12-18T00:26:04;-4.70;99.90
32536;DHT22;18974;50.838;4.636;2022-12-18T00:28:30;-4.60;99.90
32536;DHT22;18974;50.838;4.636;2022-12-18T00:31:16;-4.70;99.90
32536;DHT22;18974;50.838;4.636;2022-12-18T00:33:42;-4.80;99.90
32536;DHT22;18974;50.838;4.636;2022-12-18T00:36:17;-4.80;99.90
32536;DHT22;18974;50.838;4.636;2022-12-18T00:38:44;-4.80;99.90
32536;DHT22;18974;50.838;4.636;2022-12-18T00:41:11;-4.80;99.90
32536;DHT22;18974;50.838;4.636;2022-12-18T00:43:37;-4.90;99.90
32536;DHT22;18974;50.838;4.636;2022-12-18T00:46:04;-4.90;99.90
32536;DHT22;18974;50.838;4.636;2022-12-18T00:48:30;-4.80;99.90
32536;DHT22;18974;50.838;4.636;2022-12-18T00:50:55;-4.80;99.90
32536;DHT22;18974;50.838;4.636;2022-12-18T00:53:21;-4.90;99.90
32536;DHT22;18974;50.838;4.636;2022-12-18T00:55:47;-4.90;99.90
32536;DHT22;18974;50.838;4.636;2022-12-18T00:58:15;-4.90;99.90
32536;DHT22;18974;50.838;4.636;2022-12-18T01:00:41;-5.00;99.90
32536;DHT22;18974;50.838;4.636;2022-12-18T01:03:07;-5.00;99.90
32536;DHT22;18974;50.838;4.636;2022-12-18T01:05:33;-5.10;99.90
32536;DHT22;18974;50.838;4.636;2022-12-18T01:07:59;-5.00;99.90
32536;DHT22;18974;50.838;4.636;2022-12-18T01:10:25;-5.00;99.90
32536;DHT22;18974;50.838;4.636;2022-12-18T01:12:51;-5.00;99.90
32536;DHT22;18974;50.838;4.636;2022-12-18T01:15:17;-5.00;99.90
32536;DHT22;18974;50.838;4.636;2022-12-18T01:17:43;-5.00;99.90
32536;DHT22;18974;50.838;4.636;2022-12-18T01:20:11;-5.10;99.90
32536;DHT22;18974;50.838;4.636;2022-12-18T01:22:37;-5.10;99.90
32536;DHT22;18974;50.838;4.636;2022-12-18T01:25:04;-5.10;99.90
32536;DHT22;18974;50.838;4.636;2022-12-18T01:27:30;-5.10;99.90
32536;DHT22;18974;50.838;4.636;2022-12-18T01:29:56;-5.00;99.90
32536;DHT22;18974;50.838;4.636;2022-12-18T01:32:22;-5.10;99.90
32536;DHT22;18974;50.838;4.636;2022-12-18T01:34:47;-5.10;99.90
32536;DHT22;18974;50.838;4.636;2022-12-18T01:37:14;-5.10;99.90
32536;DHT22;18974;50.838;4.636;2022-12-18T01:39:40;-5.20;99.90
32536;DHT22;18974;50.838;4.636;2022-12-18T01:42:11;-5.20;99.90
32536;DHT22;18974;50.838;4.636;2022-12-18T01:44:57;-5.20;99.90
32536;DHT22;18974;50.838;4.636;2022-12-18T01:49:52;-5.30;99.90
32536;DHT22;18974;50.838;4.636;2022-12-18T01:52:19;-5.20;99.90
32536;DHT22;18974;50.838;4.636;2022-12-18T01:54:46;-5.30;99.90
32536;DHT22;18974;50.838;4.636;2022-12-18T01:57:13;-5.40;99.90
32536;DHT22;18974;50.838;4.636;2022-12-18T01:59:40;-5.50;99.90
32536;DHT22;18974;50.838;4.636;2022-12-18T02:02:07;-5.40;99.90
32536;DHT22;18974;50.838;4.636;2022-12-18T02:04:33;-5.50;99.90
32536;DHT22;18974;50.838;4.636;2022-12-18T02:10:31;-5.50;99.90
32536;DHT22;18974;50.838;4.636;2022-12-18T02:15:48;-5.50;99.90
32536;DHT22;18974;50.838;4.636;2022-12-18T02:18:23;-5.40;99.90
32536;DHT22;18974;50.838;4.636;2022-12-18T02:24:07;-5.30;99.90
32536;DHT22;18974;50.838;4.636;2022-12-18T02:26:50;-5.40;99.90
32536;DHT22;18974;50.838;4.636;2022-12-18T02:29:24;-5.50;99.90
32536;DHT22;18974;50.838;4.636;2022-12-18T02:31:55;-5.40;99.90
32536;DHT22;18974;50.838;4.636;2022-12-18T02:34:26;-5.50;99.90
32536;DHT22;18974;50.838;4.636;2022-12-18T02:36:53;-5.40;99.90
32536;DHT22;18974;50.838;4.636;2022-12-18T02:39:20;-5.40;99.90
32536;DHT22;18974;50.838;4.636;2022-12-18T02:41:48;-5.40;99.90
32536;DHT22;18974;50.838;4.636;2022-12-18T02:44:13;-5.50;99.90
32536;DHT22;18974;50.838;4.636;2022-12-18T02:46:40;-5.40;99.90
32536;DHT22;18974;50.838;4.636;2022-12-18T02:49:36;-5.50;99.90
32536;DHT22;18974;50.838;4.636;2022-12-18T02:52:13;-5.50;99.90
32536;DHT22;18974;50.838;4.636;2022-12-18T02:54:56;-5.50;99.90
32536;DHT22;18974;50.838;4.636;2022-12-18T03:00:23;-5.60;99.90
32536;DHT22;18974;50.838;4.636;2022-12-18T03:05:38;-5.50;99.90
32536;DHT22;18974;50.838;4.636;2022-12-18T03:08:14;-5.60;99.90
32536;DHT22;18974;50.838;4.636;2022-12-18T03:10:53;-5.60;99.90
32536;DHT22;18974;50.838;4.636;2022-12-18T03:13:25;-5.60;99.90
32536;DHT22;18974;50.838;4.636;2022-12-18T03:15:54;-5.80;99.90
32536;DHT22;18974;50.838;4.636;2022-12-18T03:18:35;-5.80;99.90
32536;DHT22;18974;50.838;4.636;2022-12-18T03:21:05;-5.70;99.90
32536;DHT22;18974;50.838;4.636;2022-12-18T03:23:39;-5.90;99.90
32536;DHT22;18974;50.838;4.636;2022-12-18T03:26:09;-5.90;99.90
32536;DHT22;18974;50.838;4.636;2022-12-18T03:28:38;-5.90;99.90
32536;DHT22;18974;50.838;4.636;2022-12-18T03:31:08;-5.80;99.90
32536;DHT22;18974;50.838;4.636;2022-12-18T03:33:41;-5.80;99.90
32536;DHT22;18974;50.838;4.636;2022-12-18T03:36:07;-5.80;99.90
32536;DHT22;18974;50.838;4.636;2022-12-18T03:38:33;-5.70;99.90
32536;DHT22;18974;50.838;4.636;2022-12-18T03:41:15;-5.90;99.90
32536;DHT22;18974;50.838;4.636;2022-12-18T03:49:01;-6.10;99.90
32536;DHT22;18974;50.838;4.636;2022-12-18T03:51:43;-6.10;99.90
32536;DHT22;18974;50.838;4.636;2022-12-18T03:54:12;-6.20;99.90
32536;DHT22;18974;50.838;4.636;2022-12-18T03:56:44;-6.20;99.90
32536;DHT22;18974;50.838;4.636;2022-12-18T03:59:12;-6.20;99.90
32536;DHT22;18974;50.838;4.636;2022-12-18T04:01:45;-6.20;99.90
32536;DHT22;18974;50.838;4.636;2022-12-18T04:04:12;-6.20;99.90
32536;DHT22;18974;50.838;4.636;2022-12-18T04:06:40;-6.20;99.90
32536;DHT22;18974;50.838;4.636;2022-12-18T04:09:07;-6.20;99.90
32536;DHT22;18974;50.838;4.636;2022-12-18T04:11:33;-6.20;99.90
32536;DHT22;18974;50.838;4.636;2022-12-18T04:13:59;-6.20;99.90
32536;DHT22;18974;50.838;4.636;2022-12-18T04:16:25;-6.10;99.90
32536;DHT22;18974;50.838;4.636;2022-12-18T04:18:51;-6.20;99.90
32536;DHT22;18974;50.838;4.636;2022-12-18T04:21:17;-6.30;99.90
32536;DHT22;18974;50.838;4.636;2022-12-18T04:23:43;-6.30;99.90
32536;DHT22;18974;50.838;4.636;2022-12-18T04:26:08;-6.30;99.90
32536;DHT22;18974;50.838;4.636;2022-12-18T04:28:34;-6.10;99.90
32536;DHT22;18974;50.838;4.636;2022-12-18T04:31:00;-6.20;99.90
32536;DHT22;18974;50.838;4.636;2022-12-18T04:33:26;-6.20;99.90
32536;DHT22;18974;50.838;4.636;2022-12-18T04:35:51;-6.20;99.90
32536;DHT22;18974;50.838;4.636;2022-12-18T04:38:17;-6.30;99.90
32536;DHT22;18974;50.838;4.636;2022-12-18T04:40:43;-6.20;99.90
32536;DHT22;18974;50.838;4.636;2022-12-18T04:43:09;-6.20;99.90
32536;DHT22;18974;50.838;4.636;2022-12-18T04:45:34;-6.20;99.90
32536;DHT22;18974;50.838;4.636;2022-12-18T04:48:01;-6.20;99.90
32536;DHT22;18974;50.838;4.636;2022-12-18T04:50:27;-6.30;99.90
32536;DHT22;18974;50.838;4.636;2022-12-18T04:52:53;-6.30;99.90
32536;DHT22;18974;50.838;4.636;2022-12-18T04:55:19;-6.20;99.90
32536;DHT22;18974;50.838;4.636;2022-12-18T04:57:44;-6.30;99.90
32536;DHT22;18974;50.838;4.636;2022-12-18T05:00:10;-6.30;99.90
32536;DHT22;18974;50.838;4.636;2022-12-18T05:02:36;-6.20;99.90
32536;DHT22;18974;50.838;4.636;2022-12-18T05:05:02;-6.30;99.90
32536;DHT22;18974;50.838;4.636;2022-12-18T05:07:28;-6.40;99.90
32536;DHT22;18974;50.838;4.636;2022-12-18T05:09:53;-6.40;99.90
32536;DHT22;18974;50.838;4.636;2022-12-18T05:12:19;-6.40;99.90
32536;DHT22;18974;50.838;4.636;2022-12-18T05:14:45;-6.20;99.90
32536;DHT22;18974;50.838;4.636;2022-12-18T05:17:10;-6.20;99.90
32536;DHT22;18974;50.838;4.636;2022-12-18T05:19:36;-6.20;99.90
32536;DHT22;18974;50.838;4.636;2022-12-18T05:22:01;-6.30;99.90
32536;DHT22;18974;50.838;4.636;2022-12-18T05:24:27;-6.30;99.90
32536;DHT22;18974;50.838;4.636;2022-12-18T05:26:53;-6.30;99.90
32536;DHT22;18974;50.838;4.636;2022-12-18T05:29:18;-6.40;99.90
32536;DHT22;18974;50.838;4.636;2022-12-18T05:31:44;-6.40;99.90
32536;DHT22;18974;50.838;4.636;2022-12-18T05:34:09;-6.50;99.90
32536;DHT22;18974;50.838;4.636;2022-12-18T05:36:35;-6.50;99.90
32536;DHT22;18974;50.838;4.636;2022-12-18T05:39:01;-6.40;99.90
32536;DHT22;18974;50.838;4.636;2022-12-18T05:41:27;-6.40;99.90
32536;DHT22;18974;50.838;4.636;2022-12-18T05:43:52;-6.40;99.90
32536;DHT22;18974;50.838;4.636;2022-12-18T05:46:18;-6.40;99.90
32536;DHT22;18974;50.838;4.636;2022-12-18T05:48:44;-6.50;99.90
32536;DHT22;18974;50.838;4.636;2022-12-18T05:51:13;-6.40;99.90
32536;DHT22;18974;50.838;4.636;2022-12-18T05:53:40;-6.60;99.90
32536;DHT22;18974;50.838;4.636;2022-12-18T05:56:11;-6.60;99.90
32536;DHT22;18974;50.838;4.636;2022-12-18T05:58:37;-6.50;99.90
32536;DHT22;18974;50.838;4.636;2022-12-18T06:01:26;-6.50;99.90
32536;DHT22;18974;50.838;4.636;2022-12-18T06:03:52;-6.60;99.90
32536;DHT22;18974;50.838;4.636;2022-12-18T06:06:23;-6.50;99.90
32536;DHT22;18974;50.838;4.636;2022-12-18T06:08:49;-6.40;99.90
32536;DHT22;18974;50.838;4.636;2022-12-18T06:11:18;-6.40;99.90
32536;DHT22;18974;50.838;4.636;2022-12-18T06:13:45;-6.30;99.90
32536;DHT22;18974;50.838;4.636;2022-12-18T06:16:10;-6.40;99.90
32536;DHT22;18974;50.838;4.636;2022-12-18T06:18:36;-6.40;99.90
32536;DHT22;18974;50.838;4.636;2022-12-18T06:21:02;-6.50;99.90
32536;DHT22;18974;50.838;4.636;2022-12-18T06:23:27;-6.60;99.90
32536;DHT22;18974;50.838;4.636;2022-12-18T06:25:53;-6.70;99.90
32536;DHT22;18974;50.838;4.636;2022-12-18T06:28:19;-6.70;99.90
32536;DHT22;18974;50.838;4.636;2022-12-18T06:30:46;-6.60;99.90
32536;DHT22;18974;50.838;4.636;2022-12-18T06:33:12;-6.60;99.90
32536;DHT22;18974;50.838;4.636;2022-12-18T06:35:37;-6.60;99.90
32536;DHT22;18974;50.838;4.636;2022-12-18T06:38:03;-6.40;99.90
32536;DHT22;18974;50.838;4.636;2022-12-18T06:40:29;-6.30;99.90
32536;DHT22;18974;50.838;4.636;2022-12-18T06:42:54;-6.30;99.90
32536;DHT22;18974;50.838;4.636;2022-12-18T06:45:20;-6.30;99.90
32536;DHT22;18974;50.838;4.636;2022-12-18T06:47:46;-6.50;99.90
32536;DHT22;18974;50.838;4.636;2022-12-18T06:50:12;-6.40;99.90
32536;DHT22;18974;50.838;4.636;2022-12-18T06:52:39;-6.40;99.90
32536;DHT22;18974;50.838;4.636;2022-12-18T06:55:06;-6.40;99.90
32536;DHT22;18974;50.838;4.636;2022-12-18T06:57:32;-6.40;99.90
32536;DHT22;18974;50.838;4.636;2022-12-18T06:59:57;-6.40;99.90
32536;DHT22;18974;50.838;4.636;2022-12-18T07:02:23;-6.40;99.90
32536;DHT22;18974;50.838;4.636;2022-12-18T07:04:49;-6.40;99.90
32536;DHT22;18974;50.838;4.636;2022-12-18T07:07:14;-6.50;99.90
32536;DHT22;18974;50.838;4.636;2022-12-18T07:09:40;-6.40;99.90
32536;DHT22;18974;50.838;4.636;2022-12-18T07:12:05;-6.40;99.90
32536;DHT22;18974;50.838;4.636;2022-12-18T07:14:32;-6.50;99.90
32536;DHT22;18974;50.838;4.636;2022-12-18T07:16:57;-6.50;99.90
32536;DHT22;18974;50.838;4.636;2022-12-18T07:19:23;-6.50;99.90
32536;DHT22;18974;50.838;4.636;2022-12-18T07:21:50;-6.40;99.90
32536;DHT22;18974;50.838;4.636;2022-12-18T07:24:15;-6.30;99.90
32536;DHT22;18974;50.838;4.636;2022-12-18T07:26:41;-6.20;99.90
32536;DHT22;18974;50.838;4.636;2022-12-18T07:29:07;-6.10;99.90
32536;DHT22;18974;50.838;4.636;2022-12-18T07:31:33;-6.10;99.90
32536;DHT22;18974;50.838;4.636;2022-12-18T07:33:58;-6.20;99.90
32536;DHT22;18974;50.838;4.636;2022-12-18T07:36:24;-6.10;99.90
32536;DHT22;18974;50.838;4.636;2022-12-18T07:38:50;-6.10;99.90
32536;DHT22;18974;50.838;4.636;2022-12-18T07:41:16;-6.10;99.90
32536;DHT22;18974;50.838;4.636;2022-12-18T07:43:44;-6.30;99.90
32536;DHT22;18974;50.838;4.636;2022-12-18T07:46:10;-6.40;99.90
32536;DHT22;18974;50.838;4.636;2022-12-18T07:48:36;-6.40;99.90
32536;DHT22;18974;50.838;4.636;2022-12-18T07:51:04;-6.40;99.90
32536;DHT22;18974;50.838;4.636;2022-12-18T07:53:30;-6.30;99.90
32536;DHT22;18974;50.838;4.636;2022-12-18T07:56:02;-6.50;99.90
32536;DHT22;18974;50.838;4.636;2022-12-18T07:58:28;-6.40;99.90
32536;DHT22;18974;50.838;4.636;2022-12-18T08:01:01;-6.40;99.90
32536;DHT22;18974;50.838;4.636;2022-12-18T08:03:27;-6.40;99.90
32536;DHT22;18974;50.838;4.636;2022-12-18T08:05:52;-6.30;99.90
32536;DHT22;18974;50.838;4.636;2022-12-18T08:08:18;-6.20;99.90
32536;DHT22;18974;50.838;4.636;2022-12-18T08:10:43;-6.20;99.90
32536;DHT22;18974;50.838;4.636;2022-12-18T08:13:09;-6.10;99.90
32536;DHT22;18974;50.838;4.636;2022-12-18T08:15:35;-6.20;99.90
32536;DHT22;18974;50.838;4.636;2022-12-18T08:18:00;-6.30;99.90
32536;DHT22;18974;50.838;4.636;2022-12-18T08:20:26;-6.30;99.90
32536;DHT22;18974;50.838;4.636;2022-12-18T08:22:52;-6.20;99.90
32536;DHT22;18974;50.838;4.636;2022-12-18T08:25:18;-6.10;99.90
32536;DHT22;18974;50.838;4.636;2022-12-18T08:27:43;-5.90;99.90
32536;DHT22;18974;50.838;4.636;2022-12-18T08:30:10;-5.90;99.90
32536;DHT22;18974;50.838;4.636;2022-12-18T08:32:35;-5.80;99.90
32536;DHT22;18974;50.838;4.636;2022-12-18T08:35:01;-5.70;99.90
32536;DHT22;18974;50.838;4.636;2022-12-18T08:37:27;-5.60;99.90
32536;DHT22;18974;50.838;4.636;2022-12-18T08:39:53;-5.40;99.90
32536;DHT22;18974;50.838;4.636;2022-12-18T08:42:18;-5.50;99.90
32536;DHT22;18974;50.838;4.636;2022-12-18T08:45:03;-5.30;99.90
32536;DHT22;18974;50.838;4.636;2022-12-18T08:47:28;-5.20;99.90
32536;DHT22;18974;50.838;4.636;2022-12-18T08:49:54;-5.10;99.90
32536;DHT22;18974;50.838;4.636;2022-12-18T08:52:20;-5.10;99.90
32536;DHT22;18974;50.838;4.636;2022-12-18T08:54:45;-4.90;99.90
32536;DHT22;18974;50.838;4.636;2022-12-18T08:57:11;-4.90;99.90
32536;DHT22;18974;50.838;4.636;2022-12-18T08:59:37;-4.80;99.90
32536;DHT22;18974;50.838;4.636;2022-12-18T09:02:02;-4.60;99.90
32536;DHT22;18974;50.838;4.636;2022-12-18T09:04:28;-4.60;99.90
32536;DHT22;18974;50.838;4.636;2022-12-18T09:06:55;-4.50;99.90
32536;DHT22;18974;50.838;4.636;2022-12-18T09:09:20;-4.50;99.90
32536;DHT22;18974;50.838;4.636;2022-12-18T09:11:46;-4.20;99.90
32536;DHT22;18974;50.838;4.636;2022-12-18T09:14:12;-4.10;99.90
32536;DHT22;18974;50.838;4.636;2022-12-18T09:16:37;-4.00;99.90
32536;DHT22;18974;50.838;4.636;2022-12-18T09:19:04;-3.90;99.90
32536;DHT22;18974;50.838;4.636;2022-12-18T09:21:32;-3.80;99.90
32536;DHT22;18974;50.838;4.636;2022-12-18T09:23:59;-3.60;99.90
32536;DHT22;18974;50.838;4.636;2022-12-18T09:26:26;-3.50;99.90
32536;DHT22;18974;50.838;4.636;2022-12-18T09:28:51;-3.30;99.90
32536;DHT22;18974;50.838;4.636;2022-12-18T09:31:20;-3.00;99.90
32536;DHT22;18974;50.838;4.636;2022-12-18T09:33:45;-3.00;99.90
32536;DHT22;18974;50.838;4.636;2022-12-18T09:36:13;-2.90;99.90
32536;DHT22;18974;50.838;4.636;2022-12-18T09:38:39;-2.90;99.90
32536;DHT22;18974;50.838;4.636;2022-12-18T09:41:32;-2.70;99.90
32536;DHT22;18974;50.838;4.636;2022-12-18T09:44:03;-2.60;99.90
32536;DHT22;18974;50.838;4.636;2022-12-18T09:46:33;-2.50;99.90
32536;DHT22;18974;50.838;4.636;2022-12-18T09:49:05;-2.40;99.90
32536;DHT22;18974;50.838;4.636;2022-12-18T09:51:39;-2.20;99.90
32536;DHT22;18974;50.838;4.636;2022-12-18T09:54:15;-2.20;99.90
32536;DHT22;18974;50.838;4.636;2022-12-18T09:56:43;-2.10;99.90
32536;DHT22;18974;50.838;4.636;2022-12-18T10:01:44;-2.00;99.90
32536;DHT22;18974;50.838;4.636;2022-12-18T10:04:10;-1.80;99.90
32536;DHT22;18974;50.838;4.636;2022-12-18T10:11:51;-1.60;99.90
32536;DHT22;18974;50.838;4.636;2022-12-18T10:19:44;-1.40;99.90
32536;DHT22;18974;50.838;4.636;2022-12-18T10:25:03;-1.20;99.90
32536;DHT22;18974;50.838;4.636;2022-12-18T10:27:30;-1.00;99.90
32536;DHT22;18974;50.838;4.636;2022-12-18T10:29:57;-0.90;99.90
32536;DHT22;18974;50.838;4.636;2022-12-18T10:32:25;-0.80;99.90
32536;DHT22;18974;50.838;4.636;2022-12-18T10:34:54;-0.80;99.90
32536;DHT22;18974;50.838;4.636;2022-12-18T10:37:23;-0.70;99.90
32536;DHT22;18974;50.838;4.636;2022-12-18T10:40:12;-0.50;99.90
32536;DHT22;18974;50.838;4.636;2022-12-18T10:42:39;-0.50;99.90
32536;DHT22;18974;50.838;4.636;2022-12-18T10:45:16;-0.40;99.90
32536;DHT22;18974;50.838;4.636;2022-12-18T10:47:52;-0.30;99.90
32536;DHT22;18974;50.838;4.636;2022-12-18T10:50:32;-0.20;99.90
32536;DHT22;18974;50.838;4.636;2022-12-18T10:53:03;-0.10;99.90
32536;DHT22;18974;50.838;4.636;2022-12-18T10:55:37;0.10;99.90
32536;DHT22;18974;50.838;4.636;2022-12-18T10:58:36;0.20;99.90
32536;DHT22;18974;50.838;4.636;2022-12-18T11:01:09;0.30;99.90
32536;DHT22;18974;50.838;4.636;2022-12-18T11:03:44;0.50;99.90
32536;DHT22;18974;50.838;4.636;2022-12-18T11:08:41;0.60;99.90
32536;DHT22;18974;50.838;4.636;2022-12-18T11:11:20;0.70;99.90
32536;DHT22;18974;50.838;4.636;2022-12-18T11:14:00;0.80;99.90
32536;DHT22;18974;50.838;4.636;2022-12-18T11:16:27;0.90;99.90
32536;DHT22;18974;50.838;4.636;2022-12-18T11:18:54;1.00;99.90
32536;DHT22;18974;50.838;4.636;2022-12-18T11:21:20;1.00;99.90
32536;DHT22;18974;50.838;4.636;2022-12-18T11:23:53;1.10;99.90
32536;DHT22;18974;50.838;4.636;2022-12-18T11:26:19;1.10;99.90
32536;DHT22;18974;50.838;4.636;2022-12-18T11:28:52;1.20;99.90
32536;DHT22;18974;50.838;4.636;2022-12-18T11:31:32;1.40;99.90
32536;DHT22;18974;50.838;4.636;2022-12-18T11:34:00;1.40;99.90
32536;DHT22;18974;50.838;4.636;2022-12-18T11:36:29;1.40;99.90
32536;DHT22;18974;50.838;4.636;2022-12-18T11:39:00;1.40;99.90
32536;DHT22;18974;50.838;4.636;2022-12-18T11:41:34;1.40;99.90
32536;DHT22;18974;50.838;4.636;2022-12-18T11:44:28;1.50;99.90
32536;DHT22;18974;50.838;4.636;2022-12-18T11:47:07;1.60;99.90
32536;DHT22;18974;50.838;4.636;2022-12-18T11:49:35;1.60;99.90
32536;DHT22;18974;50.838;4.636;2022-12-18T11:52:15;1.60;99.90
32536;DHT22;18974;50.838;4.636;2022-12-18T11:54:42;1.60;99.90
32536;DHT22;18974;50.838;4.636;2022-12-18T12:05:50;1.70;99.90
32536;DHT22;18974;50.838;4.636;2022-12-18T12:10:50;1.80;99.90
32536;DHT22;18974;50.838;4.636;2022-12-18T12:13:34;1.80;99.90
32536;DHT22;18974;50.838;4.636;2022-12-18T12:16:28;1.90;99.90
32536;DHT22;18974;50.838;4.636;2022-12-18T12:19:17;1.90;99.90
32536;DHT22;18974;50.838;4.636;2022-12-18T12:22:33;2.10;99.90
32536;DHT22;18974;50.838;4.636;2022-12-18T12:30:32;2.10;99.90
32536;DHT22;18974;50.838;4.636;2022-12-18T12:33:23;2.20;99.90
32536;DHT22;18974;50.838;4.636;2022-12-18T12:38:44;2.20;99.90
32536;DHT22;18974;50.838;4.636;2022-12-18T12:41:14;2.10;99.90
32536;DHT22;18974;50.838;4.636;2022-12-18T12:44:05;2.20;99.90
32536;DHT22;18974;50.838;4.636;2022-12-18T12:46:36;2.20;99.90
32536;DHT22;18974;50.838;4.636;2022-12-18T12:49:04;2.20;99.90
32536;DHT22;18974;50.838;4.636;2022-12-18T12:51:37;2.20;99.90
32536;DHT22;18974;50.838;4.636;2022-12-18T12:54:08;2.30;99.90
32536;DHT22;18974;50.838;4.636;2022-12-18T12:59:29;2.10;99.90
32536;DHT22;18974;50.838;4.636;2022-12-18T13:05:01;2.10;99.90
32536;DHT22;18974;50.838;4.636;2022-12-18T13:07:41;2.10;99.90
32536;DHT22;18974;50.838;4.636;2022-12-18T13:13:07;2.20;99.90
32536;DHT22;18974;50.838;4.636;2022-12-18T13:15:46;2.00;99.90
32536;DHT22;18974;50.838;4.636;2022-12-18T13:18:20;2.00;99.90
32536;DHT22;18974;50.838;4.636;2022-12-18T13:31:01;2.00;99.90
32536;DHT22;18974;50.838;4.636;2022-12-18T13:33:37;1.90;99.90
32536;DHT22;18974;50.838;4.636;2022-12-18T13:36:25;1.90;99.90
32536;DHT22;18974;50.838;4.636;2022-12-18T13:41:36;1.90;99.90
32536;DHT22;18974;50.838;4.636;2022-12-18T13:44:37;2.00;99.90
32536;DHT22;18974;50.838;4.636;2022-12-18T13:47:24;1.90;99.90
32536;DHT22;18974;50.838;4.636;2022-12-18T13:49:50;1.80;99.90
32536;DHT22;18974;50.838;4.636;2022-12-18T13:52:22;1.90;99.90
32536;DHT22;18974;50.838;4.636;2022-12-18T13:54:55;1.70;99.90
32536;DHT22;18974;50.838;4.636;2022-12-18T14:00:24;1.70;99.90
32536;DHT22;18974;50.838;4.636;2022-12-18T14:02:50;1.60;99.90
32536;DHT22;18974;50.838;4.636;2022-12-18T14:05:27;1.60;99.90
32536;DHT22;18974;50.838;4.636;2022-12-18T14:07:55;1.70;99.90
32536;DHT22;18974;50.838;4.636;2022-12-18T14:10:25;1.80;99.90
32536;DHT22;18974;50.838;4.636;2022-12-18T14:12:51;1.90;99.90
32536;DHT22;18974;50.838;4.636;2022-12-18T14:17:55;1.80;99.90
32536;DHT22;18974;50.838;4.636;2022-12-18T14:20:21;1.80;99.90
32536;DHT22;18974;50.838;4.636;2022-12-18T14:22:49;1.70;99.90
32536;DHT22;18974;50.838;4.636;2022-12-18T14:25:26;1.70;99.90
32536;DHT22;18974;50.838;4.636;2022-12-18T14:28:07;1.70;99.90
32536;DHT22;18974;50.838;4.636;2022-12-18T14:30:45;1.70;99.90
32536;DHT22;18974;50.838;4.636;2022-12-18T14:33:17;1.70;99.90
32536;DHT22;18974;50.838;4.636;2022-12-18T14:38:28;1.80;99.90
32536;DHT22;18974;50.838;4.636;2022-12-18T14:40:59;1.80;99.90
32536;DHT22;18974;50.838;4.636;2022-12-18T14:43:26;1.80;99.90
32536;DHT22;18974;50.838;4.636;2022-12-18T14:45:53;1.80;99.90
32536;DHT22;18974;50.838;4.636;2022-12-18T14:48:20;1.90;99.90
32536;DHT22;18974;50.838;4.636;2022-12-18T14:50:56;1.90;99.90
32536;DHT22;18974;50.838;4.636;2022-12-18T14:53:58;2.00;99.90
32536;DHT22;18974;50.838;4.636;2022-12-18T14:56:36;1.90;99.90
32536;DHT22;18974;50.838;4.636;2022-12-18T14:59:04;1.80;99.90
32536;DHT22;18974;50.838;4.636;2022-12-18T15:04:01;1.90;99.90
32536;DHT22;18974;50.838;4.636;2022-12-18T15:06:35;1.90;99.90
32536;DHT22;18974;50.838;4.636;2022-12-18T15:09:04;1.90;99.90
32536;DHT22;18974;50.838;4.636;2022-12-18T15:11:43;1.80;99.90
32536;DHT22;18974;50.838;4.636;2022-12-18T15:16:54;1.90;99.90
32536;DHT22;18974;50.838;4.636;2022-12-18T15:19:22;1.90;99.90
32536;DHT22;18974;50.838;4.636;2022-12-18T15:21:54;1.90;99.90
32536;DHT22;18974;50.838;4.636;2022-12-18T15:24:27;1.80;99.90
32536;DHT22;18974;50.838;4.636;2022-12-18T15:26:55;1.80;99.90
32536;DHT22;18974;50.838;4.636;2022-12-18T15:29:22;1.90;99.90
32536;DHT22;18974;50.838;4.636;2022-12-18T15:32:10;1.90;99.90
32536;DHT22;18974;50.838;4.636;2022-12-18T15:34:41;1.70;99.90
32536;DHT22;18974;50.838;4.636;2022-12-18T15:37:10;1.70;99.90
32536;DHT22;18974;50.838;4.636;2022-12-18T15:39:36;1.70;99.90
32536;DHT22;18974;50.838;4.636;2022-12-18T15:42:01;1.80;99.90
32536;DHT22;18974;50.838;4.636;2022-12-18T15:44:46;1.90;99.90
32536;DHT22;18974;50.838;4.636;2022-12-18T15:47:12;1.90;99.90
32536;DHT22;18974;50.838;4.636;2022-12-18T15:49:39;1.80;99.90
32536;DHT22;18974;50.838;4.636;2022-12-18T15:52:05;1.80;99.90
32536;DHT22;18974;50.838;4.636;2022-12-18T15:54:31;1.70;99.90
32536;DHT22;18974;50.838;4.636;2022-12-18T15:57:15;1.80;99.90
32536;DHT22;18974;50.838;4.636;2022-12-18T15:59:55;1.90;99.90
32536;DHT22;18974;50.838;4.636;2022-12-18T16:02:23;1.90;99.90
32536;DHT22;18974;50.838;4.636;2022-12-18T16:04:51;1.90;99.90
32536;DHT22;18974;50.838;4.636;2022-12-18T16:07:17;1.90;99.90
32536;DHT22;18974;50.838;4.636;2022-12-18T16:09:43;2.00;99.90
32536;DHT22;18974;50.838;4.636;2022-12-18T16:12:21;2.00;99.90
32536;DHT22;18974;50.838;4.636;2022-12-18T16:14:47;2.00;99.90
32536;DHT22;18974;50.838;4.636;2022-12-18T16:17:14;2.00;99.90
32536;DHT22;18974;50.838;4.636;2022-12-18T16:19:39;2.00;99.90
32536;DHT22;18974;50.838;4.636;2022-12-18T16:22:05;1.90;99.90
32536;DHT22;18974;50.838;4.636;2022-12-18T16:24:36;2.00;99.90
32536;DHT22;18974;50.838;4.636;2022-12-18T16:27:02;2.00;99.90
32536;DHT22;18974;50.838;4.636;2022-12-18T16:29:28;2.00;99.90
32536;DHT22;18974;50.838;4.636;2022-12-18T16:31:55;2.10;99.90
32536;DHT22;18974;50.838;4.636;2022-12-18T16:36:59;2.00;99.90
32536;DHT22;18974;50.838;4.636;2022-12-18T16:39:25;2.10;99.90
32536;DHT22;18974;50.838;4.636;2022-12-18T16:41:51;2.10;99.90
32536;DHT22;18974;50.838;4.636;2022-12-18T16:44:17;2.10;99.90
32536;DHT22;18974;50.838;4.636;2022-12-18T16:46:43;2.10;99.90
32536;DHT22;18974;50.838;4.636;2022-12-18T16:49:14;2.10;99.90
32536;DHT22;18974;50.838;4.636;2022-12-18T16:51:40;2.20;99.90
32536;DHT22;18974;50.838;4.636;2022-12-18T16:54:07;2.20;99.90
32536;DHT22;18974;50.838;4.636;2022-12-18T16:56:32;2.10;99.90
32536;DHT22;18974;50.838;4.636;2022-12-18T16:58:59;2.10;99.90
32536;DHT22;18974;50.838;4.636;2022-12-18T17:01:27;2.00;99.90
32536;DHT22;18974;50.838;4.636;2022-12-18T17:03:59;2.10;99.90
32536;DHT22;18974;50.838;4.636;2022-12-18T17:06:26;2.00;99.90
32536;DHT22;18974;50.838;4.636;2022-12-18T17:08:56;1.90;99.90
32536;DHT22;18974;50.838;4.636;2022-12-18T17:11:26;2.00;99.90
32536;DHT22;18974;50.838;4.636;2022-12-18T17:13:52;2.10;99.90
32536;DHT22;18974;50.838;4.636;2022-12-18T17:16:18;2.20;99.90
32536;DHT22;18974;50.838;4.636;2022-12-18T17:18:44;2.20;99.90
32536;DHT22;18974;50.838;4.636;2022-12-18T17:21:11;2.10;99.90
32536;DHT22;18974;50.838;4.636;2022-12-18T17:23:39;2.10;99.90
32536;DHT22;18974;50.838;4.636;2022-12-18T17:26:05;2.10;99.90
32536;DHT22;18974;50.838;4.636;2022-12-18T17:28:32;2.20;99.90